createdAt,value
2018-07-08T00:02:21.140Z,18.89
2018-07-08T00:07:15.740Z,18.84
2018-07-08T00:12:10.356Z,18.90
2018-07-08T00:17:04.964Z,18.94
2018-07-08T00:21:59.537Z,18.96
2018-07-08T00:26:54.096Z,18.98
2018-07-08T00:31:48.379Z,18.93
2018-07-08T00:36:42.977Z,18.90
2018-07-08T00:41:37.626Z,18.89
2018-07-08T00:46:32.630Z,18.85
2018-07-08T00:51:27.204Z,18.87
2018-07-08T00:56:21.816Z,18.80
2018-07-08T01:01:16.367Z,18.77
2018-07-08T01:06:11.079Z,18.73
2018-07-08T01:11:05.666Z,18.73
2018-07-08T01:16:00.253Z,18.80
2018-07-08T01:20:54.846Z,18.77
2018-07-08T01:26:09.683Z,18.76
2018-07-08T01:31:04.409Z,18.75
2018-07-08T01:35:59.008Z,18.77
2018-07-08T01:40:53.557Z,18.78
2018-07-08T01:45:48.130Z,18.78
2018-07-08T01:50:42.690Z,18.82
2018-07-08T01:55:37.265Z,18.87
2018-07-08T02:00:31.869Z,18.76
2018-07-08T02:05:26.413Z,18.69
2018-07-08T02:10:20.981Z,18.67
2018-07-08T02:15:16.450Z,18.59
2018-07-08T02:20:11.023Z,18.54
2018-07-08T02:25:05.697Z,18.45
2018-07-08T02:30:00.328Z,18.40
2018-07-08T02:34:55.306Z,18.37
2018-07-08T02:39:49.884Z,18.28
2018-07-08T02:44:44.526Z,18.18
2018-07-08T02:49:39.451Z,18.16
2018-07-08T02:54:33.997Z,18.09
2018-07-08T02:59:28.604Z,17.87
2018-07-08T03:04:23.124Z,17.75
2018-07-08T03:09:17.657Z,17.69
2018-07-08T03:14:12.205Z,17.64
2018-07-08T03:19:06.913Z,17.61
2018-07-08T03:24:01.514Z,17.57
2018-07-08T03:28:56.016Z,17.54
2018-07-08T03:33:50.532Z,17.42
2018-07-08T03:38:45.140Z,17.35
2018-07-08T03:43:39.372Z,17.31
2018-07-08T03:48:33.889Z,17.35
2018-07-08T03:53:28.410Z,17.41
2018-07-08T03:58:22.954Z,17.45
2018-07-08T04:03:17.195Z,17.54
2018-07-08T04:08:11.760Z,17.71
2018-07-08T04:13:06.356Z,18.12
2018-07-08T04:18:05.107Z,18.85
2018-07-08T04:22:59.665Z,19.67
2018-07-08T04:27:54.238Z,20.40
2018-07-08T04:32:48.802Z,21.14
2018-07-08T04:37:43.346Z,21.77
2018-07-08T04:42:37.906Z,22.54
2018-07-08T04:47:32.422Z,23.03
2018-07-08T04:52:26.953Z,23.87
2018-07-08T04:57:21.491Z,24.31
2018-07-08T05:02:16.592Z,25.16
2018-07-08T05:07:11.112Z,25.73
2018-07-08T05:12:05.721Z,26.32
2018-07-08T05:17:00.212Z,26.45
2018-07-08T05:21:54.754Z,26.75
2018-07-08T05:26:49.465Z,26.83
2018-07-08T05:31:44.033Z,27.14
2018-07-08T05:36:38.756Z,27.36
2018-07-08T05:41:33.375Z,27.31
2018-07-08T05:46:27.974Z,27.51
2018-07-08T05:51:22.702Z,28.07
2018-07-08T05:56:17.282Z,28.13
2018-07-08T06:01:12.901Z,28.07
2018-07-08T06:06:08.156Z,28.34
2018-07-08T06:11:02.929Z,27.86
2018-07-08T06:15:57.897Z,28.00
2018-07-08T06:20:52.672Z,28.30
2018-07-08T06:25:47.467Z,28.16
2018-07-08T06:30:42.400Z,28.15
2018-07-08T06:35:37.182Z,27.50
2018-07-08T06:40:31.862Z,26.93
2018-07-08T06:45:26.790Z,26.13
2018-07-08T06:50:21.336Z,25.59
2018-07-08T06:55:15.984Z,25.18
2018-07-08T07:00:10.866Z,24.80
2018-07-08T07:05:05.200Z,24.53
2018-07-08T07:09:59.750Z,24.82
2018-07-08T07:14:54.371Z,25.04
2018-07-08T07:19:48.927Z,25.02
2018-07-08T07:24:43.484Z,24.94
2018-07-08T07:29:38.161Z,25.10
2018-07-08T07:34:32.760Z,25.22
2018-07-08T07:39:27.426Z,25.06
2018-07-08T07:44:21.990Z,25.06
2018-07-08T07:49:16.652Z,24.94
2018-07-08T07:54:11.380Z,24.94
2018-07-08T07:59:06.321Z,24.81
2018-07-08T08:04:01.014Z,24.94
2018-07-08T08:08:55.392Z,25.21
2018-07-08T08:14:04.054Z,25.52
2018-07-08T08:18:59.107Z,25.61
2018-07-08T08:23:53.983Z,25.95
2018-07-08T08:28:48.688Z,26.01
2018-07-08T08:33:46.477Z,26.14
2018-07-08T08:38:41.073Z,26.54
2018-07-08T08:43:35.748Z,26.23
2018-07-08T08:48:31.233Z,25.74
2018-07-08T08:53:25.926Z,26.11
2018-07-08T08:58:20.607Z,26.50
2018-07-08T09:03:15.457Z,25.85
2018-07-08T09:08:10.052Z,26.52
2018-07-08T09:13:04.942Z,27.16
2018-07-08T09:17:59.554Z,27.18
2018-07-08T09:22:54.577Z,27.43
2018-07-08T09:27:49.230Z,27.25
2018-07-08T09:32:44.041Z,27.09
2018-07-08T09:37:38.342Z,26.93
2018-07-08T09:42:32.929Z,27.72
2018-07-08T09:47:27.701Z,27.90
2018-07-08T09:52:22.422Z,28.27
2018-07-08T09:57:17.017Z,28.64
2018-07-08T10:02:11.769Z,28.98
2018-07-08T10:07:06.492Z,29.12
2018-07-08T10:12:01.465Z,29.52
2018-07-08T10:16:56.396Z,29.75
2018-07-08T10:21:51.826Z,29.92
2018-07-08T10:26:54.897Z,29.72
2018-07-08T10:31:52.371Z,30.03
2018-07-08T10:36:47.533Z,29.85
2018-07-08T10:41:42.929Z,30.04
2018-07-08T10:46:38.135Z,30.57
2018-07-08T10:51:32.944Z,30.92
2018-07-08T10:56:28.885Z,31.11
2018-07-08T11:01:23.837Z,31.36
2018-07-08T11:06:18.639Z,31.21
2018-07-08T11:11:13.973Z,30.88
2018-07-08T11:16:09.017Z,30.30
2018-07-08T11:21:04.682Z,29.53
2018-07-08T11:25:59.532Z,28.97
2018-07-08T11:30:54.212Z,28.41
2018-07-08T11:35:49.005Z,27.90
2018-07-08T11:40:43.852Z,28.00
2018-07-08T11:45:38.730Z,28.41
2018-07-08T11:50:33.457Z,29.36
2018-07-08T11:55:28.723Z,30.07
2018-07-08T12:00:23.421Z,30.01
2018-07-08T12:05:18.124Z,30.38
2018-07-08T12:10:13.963Z,30.65
2018-07-08T12:15:08.804Z,31.00
2018-07-08T12:20:04.038Z,30.77
2018-07-08T12:24:59.227Z,30.69
2018-07-08T12:29:53.882Z,30.25
2018-07-08T12:34:48.230Z,29.86
2018-07-08T12:39:43.241Z,29.87
2018-07-08T12:44:37.926Z,29.31
2018-07-08T12:49:32.796Z,29.33
2018-07-08T12:54:27.527Z,29.34
2018-07-08T12:59:22.312Z,29.42
2018-07-08T13:04:17.197Z,29.37
2018-07-08T13:09:11.865Z,29.43
2018-07-08T13:14:07.346Z,30.17
2018-07-08T13:19:01.955Z,31.01
2018-07-08T13:23:56.721Z,31.39
2018-07-08T13:28:51.371Z,31.78
2018-07-08T13:33:45.815Z,31.74
2018-07-08T13:38:40.765Z,30.56
2018-07-08T13:43:35.661Z,29.32
2018-07-08T13:48:30.413Z,29.09
2018-07-08T13:53:24.725Z,29.25
2018-07-08T13:58:19.070Z,28.73
2018-07-08T14:03:13.675Z,29.00
2018-07-08T14:08:08.473Z,29.03
2018-07-08T14:13:03.577Z,28.95
2018-07-08T14:17:58.386Z,28.58
2018-07-08T14:22:53.161Z,28.28
2018-07-08T14:27:47.500Z,28.60
2018-07-08T14:32:42.429Z,29.04
2018-07-08T14:37:37.237Z,28.92
2018-07-08T14:42:31.785Z,28.79
2018-07-08T14:47:26.392Z,27.79
2018-07-08T14:52:21.118Z,27.74
2018-07-08T14:57:15.882Z,27.67
2018-07-08T15:02:10.602Z,27.49
2018-07-08T15:07:05.441Z,27.80
2018-07-08T15:12:00.165Z,28.03
2018-07-08T15:16:54.793Z,28.03
2018-07-08T15:21:49.588Z,28.53
2018-07-08T15:26:44.320Z,28.71
2018-07-08T15:31:39.023Z,29.05
2018-07-08T15:36:33.885Z,28.34
2018-07-08T15:41:28.636Z,28.63
2018-07-08T15:46:23.289Z,28.77
2018-07-08T15:51:17.910Z,28.62
2018-07-08T15:56:12.713Z,28.18
2018-07-08T16:01:07.558Z,27.93
2018-07-08T16:06:02.242Z,27.83
2018-07-08T16:10:56.905Z,27.72
2018-07-08T16:15:51.785Z,28.09
2018-07-08T16:20:46.305Z,27.86
2018-07-08T16:25:46.002Z,27.83
2018-07-08T16:30:40.475Z,27.66
2018-07-08T16:35:35.097Z,27.95
2018-07-08T16:40:29.933Z,27.48
2018-07-08T16:45:24.670Z,27.62
2018-07-08T16:50:20.477Z,27.61
2018-07-08T16:55:15.709Z,27.72
2018-07-08T17:00:12.181Z,27.87
2018-07-08T17:05:06.985Z,27.77
2018-07-08T17:10:01.598Z,27.90
2018-07-08T17:14:56.215Z,27.91
2018-07-08T17:19:52.899Z,27.82
2018-07-08T17:24:47.757Z,27.91
2018-07-08T17:29:43.101Z,27.80
2018-07-08T17:34:38.136Z,27.39
2018-07-08T17:39:32.850Z,26.99
2018-07-08T17:44:27.461Z,26.84
2018-07-08T17:49:22.156Z,26.96
2018-07-08T17:54:16.688Z,26.77
2018-07-08T17:59:11.260Z,26.59
2018-07-08T18:04:06.092Z,26.50
2018-07-08T18:09:00.826Z,26.40
2018-07-08T18:13:56.187Z,26.16
2018-07-08T18:18:50.929Z,26.14
2018-07-08T18:23:45.547Z,26.17
2018-07-08T18:28:40.105Z,25.93
2018-07-08T18:33:34.925Z,25.61
2018-07-08T18:38:29.488Z,25.42
2018-07-08T18:43:24.190Z,25.04
2018-07-08T18:48:18.948Z,25.14
2018-07-08T18:53:13.525Z,25.32
2018-07-08T18:58:08.110Z,25.85
2018-07-08T19:03:02.668Z,26.14
2018-07-08T19:07:57.432Z,25.81
2018-07-08T19:12:51.961Z,25.44
2018-07-08T19:17:46.579Z,24.76
2018-07-08T19:22:41.222Z,24.30
2018-07-08T19:27:35.898Z,24.11
2018-07-08T19:32:30.522Z,23.92
2018-07-08T19:37:25.641Z,23.74
2018-07-08T19:42:20.334Z,23.64
2018-07-08T19:47:14.913Z,23.51
2018-07-08T19:52:09.451Z,23.49
2018-07-08T19:57:04.146Z,23.35
2018-07-08T20:01:58.935Z,23.29
2018-07-08T20:06:53.185Z,23.20
2018-07-08T20:11:47.897Z,23.15
2018-07-08T20:16:42.466Z,23.09
2018-07-08T20:21:37.303Z,23.08
2018-07-08T20:26:31.777Z,23.00
2018-07-08T20:31:26.445Z,22.95
2018-07-08T20:36:21.128Z,22.87
2018-07-08T20:41:15.765Z,22.86
2018-07-08T20:46:10.567Z,22.94
2018-07-08T20:51:05.225Z,22.92
2018-07-08T20:56:00.597Z,22.92
2018-07-08T21:00:55.203Z,22.87
2018-07-08T21:05:49.912Z,22.81
2018-07-08T21:10:45.253Z,22.75
2018-07-08T21:15:39.551Z,22.67
2018-07-08T21:20:34.592Z,22.53
2018-07-08T21:25:29.182Z,22.48
2018-07-08T21:30:23.450Z,22.26
2018-07-08T21:35:18.058Z,22.12
2018-07-08T21:40:12.922Z,21.98
2018-07-08T21:45:07.506Z,21.85
2018-07-08T21:50:02.194Z,21.61
2018-07-08T21:54:56.825Z,21.55
2018-07-08T21:59:51.441Z,21.29
2018-07-08T22:04:46.133Z,21.09
2018-07-08T22:09:40.893Z,20.89
2018-07-08T22:14:35.433Z,20.74
2018-07-08T22:19:29.947Z,20.74
2018-07-08T22:24:24.509Z,20.56
2018-07-08T22:29:19.095Z,20.37
2018-07-08T22:34:13.757Z,20.34
2018-07-08T22:39:09.438Z,20.21
2018-07-08T22:44:03.978Z,20.07
2018-07-08T22:48:58.545Z,20.04
2018-07-08T22:53:53.559Z,19.96
2018-07-08T22:58:48.125Z,19.97
2018-07-08T23:03:47.787Z,19.91
2018-07-08T23:08:42.360Z,19.83
2018-07-08T23:13:36.897Z,19.73
2018-07-08T23:18:31.453Z,19.57
2018-07-08T23:23:25.986Z,19.50
2018-07-08T23:28:20.509Z,19.36
2018-07-08T23:33:16.062Z,19.24
2018-07-08T23:38:10.611Z,19.16
2018-07-08T23:43:05.453Z,19.10
2018-07-08T23:48:00.000Z,19.07
2018-07-08T23:52:54.649Z,19.10
2018-07-08T23:57:49.256Z,18.99
